createdAt,value
2022-09-05T00:00:19.392Z,101998.78
2022-09-05T00:03:25.554Z,101992.75
2022-09-05T00:06:11.635Z,101990.69
2022-09-05T00:09:27.757Z,101991.56
2022-09-05T00:12:00.801Z,101995.66
2022-09-05T00:15:15.981Z,101994.72
2022-09-05T00:19:16.172Z,102000.31
2022-09-05T00:24:24.986Z,101984.03
2022-09-05T00:24:42.730Z,101988.53
2022-09-05T00:27:10.220Z,101998.88
2022-09-05T00:31:05.480Z,101989.69
2022-09-05T00:32:39.425Z,101990.00
2022-09-05T00:35:40.459Z,101992.47
2022-09-05T00:38:16.925Z,101987.38
2022-09-05T00:40:52.168Z,101986.28
2022-09-05T00:43:23.343Z,101990.34
2022-09-05T00:46:02.484Z,101991.41
2022-09-05T00:48:46.459Z,101988.69
2022-09-05T00:51:29.195Z,101987.34
2022-09-05T00:54:01.703Z,101990.47
2022-09-05T00:56:50.990Z,101988.38
2022-09-05T01:00:01.566Z,101989.75
2022-09-05T01:02:32.132Z,101988.25
2022-09-05T01:05:35.462Z,101983.03
2022-09-05T01:08:16.770Z,101987.50
2022-09-05T01:10:58.018Z,101984.16
2022-09-05T01:13:45.536Z,101993.34
2022-09-05T01:16:24.665Z,101986.84
2022-09-05T01:19:15.977Z,101989.75
2022-09-05T01:21:52.220Z,101992.22
2022-09-05T01:25:04.996Z,101988.13
2022-09-05T01:29:14.019Z,101991.16
2022-09-05T01:31:00.751Z,101991.38
2022-09-05T01:33:43.241Z,101992.81
2022-09-05T01:36:17.221Z,101988.91
2022-09-05T01:40:14.209Z,101992.16
2022-09-05T01:42:25.444Z,101988.44
2022-09-05T01:45:27.230Z,101983.13
2022-09-05T01:48:09.997Z,101981.66
2022-09-05T01:51:03.001Z,101985.50
2022-09-05T01:53:51.168Z,101985.75
2022-09-05T01:56:18.050Z,101980.13
2022-09-05T01:58:54.155Z,101983.13
2022-09-05T02:01:30.018Z,101978.59
2022-09-05T02:04:41.465Z,101984.56
2022-09-05T02:07:45.545Z,101979.25
2022-09-05T02:10:24.880Z,101984.25
2022-09-05T02:13:11.537Z,101985.22
2022-09-05T02:16:03.211Z,101980.81
2022-09-05T02:18:49.244Z,101988.47
2022-09-05T02:21:24.487Z,101985.81
2022-09-05T02:24:50.020Z,101990.03
2022-09-05T02:28:04.004Z,101994.28
2022-09-05T02:31:01.547Z,101992.56
2022-09-05T02:33:38.566Z,102000.16
2022-09-05T02:36:18.205Z,101998.59
2022-09-05T02:40:59.886Z,101996.50
2022-09-05T02:45:12.048Z,101996.81
2022-09-05T02:45:33.847Z,101998.84
2022-09-05T02:48:22.309Z,101991.84
2022-09-05T02:57:29.200Z,101997.13
2022-09-05T02:57:35.594Z,101995.97
2022-09-05T02:58:04.220Z,101994.94
2022-09-05T03:00:22.092Z,101998.47
2022-09-05T03:03:18.297Z,101994.47
2022-09-05T03:06:06.341Z,101990.63
2022-09-05T03:08:52.014Z,101987.13
2022-09-05T03:11:50.520Z,101987.72
2022-09-05T03:14:23.209Z,101979.88
2022-09-05T03:17:08.303Z,101995.31
2022-09-05T03:19:50.250Z,101983.22
2022-09-05T03:22:27.338Z,101973.41
2022-09-05T03:25:12.472Z,101979.78
2022-09-05T03:27:48.407Z,101985.38
2022-09-05T03:30:22.709Z,101981.88
2022-09-05T03:33:07.572Z,101981.09
2022-09-05T03:35:59.251Z,101982.25
2022-09-05T03:38:48.943Z,101986.75
2022-09-05T03:41:46.682Z,101988.00
2022-09-05T03:44:32.485Z,101985.47
2022-09-05T03:47:23.389Z,101994.28
2022-09-05T03:52:59.780Z,101993.16
2022-09-05T03:57:11.361Z,102003.38
2022-09-05T03:57:13.651Z,102004.38
2022-09-05T03:59:24.245Z,101995.63
2022-09-05T04:04:39.264Z,101993.84
2022-09-05T04:08:14.567Z,102012.41
2022-09-05T04:08:33.069Z,102002.63
2022-09-05T04:11:35.666Z,102011.78
2022-09-05T04:14:47.435Z,102008.78
2022-09-05T04:17:32.172Z,102005.34
2022-09-05T04:20:12.375Z,102006.31
2022-09-05T04:23:00.919Z,102011.59
2022-09-05T04:26:01.416Z,102010.44
2022-09-05T04:28:53.220Z,102002.66
2022-09-05T04:31:34.935Z,102004.44
2022-09-05T04:34:16.773Z,102008.13
2022-09-05T04:36:45.325Z,102009.13
2022-09-05T04:39:18.422Z,102014.44
2022-09-05T04:41:51.351Z,102006.44
2022-09-05T04:44:26.603Z,102007.00
2022-09-05T04:47:19.497Z,102008.03
2022-09-05T04:50:20.839Z,102005.38
2022-09-05T04:53:00.050Z,102016.50
2022-09-05T04:55:46.730Z,102015.03
2022-09-05T04:59:14.520Z,102017.78
2022-09-05T05:06:05.204Z,102022.50
2022-09-05T05:06:11.747Z,102029.97
2022-09-05T05:07:24.959Z,102033.44
2022-09-05T05:12:02.827Z,102035.09
2022-09-05T05:17:29.907Z,102031.63
2022-09-05T05:18:09.769Z,102032.44
2022-09-05T05:18:59.078Z,102036.19
2022-09-05T05:21:31.718Z,102025.16
2022-09-05T05:24:09.327Z,102038.44
2022-09-05T05:27:14.537Z,102034.78
2022-09-05T05:29:49.143Z,102038.88
2022-09-05T05:32:45.125Z,102038.31
2022-09-05T05:35:48.083Z,102046.38
2022-09-05T05:38:18.178Z,102042.41
2022-09-05T05:40:50.765Z,102036.88
2022-09-05T05:43:34.069Z,102046.81
2022-09-05T05:46:01.563Z,102040.28
2022-09-05T05:48:35.853Z,102045.50
2022-09-05T05:52:01.792Z,102050.34
2022-09-05T05:54:32.906Z,102048.25
2022-09-05T05:57:18.213Z,102049.25
2022-09-05T06:00:14.761Z,102055.47
2022-09-05T06:03:25.078Z,102054.69
2022-09-05T06:06:10.674Z,102045.38
2022-09-05T06:13:06.306Z,102046.34
2022-09-05T06:14:56.532Z,102049.94
2022-09-05T06:15:55.291Z,102051.03
2022-09-05T06:18:48.600Z,102052.81
2022-09-05T06:22:11.512Z,102059.69
2022-09-05T06:24:30.235Z,102055.41
2022-09-05T06:27:16.088Z,102055.41
2022-09-05T06:30:01.732Z,102053.22
2022-09-05T06:32:55.326Z,102051.38
2022-09-05T06:35:37.336Z,102054.50
2022-09-05T06:38:30.063Z,102049.31
2022-09-05T06:41:25.677Z,102048.00
2022-09-05T06:44:22.278Z,102050.78
2022-09-05T06:47:23.840Z,102051.06
2022-09-05T06:49:50.919Z,102040.88
2022-09-05T06:52:55.199Z,102046.53
2022-09-05T06:55:50.253Z,102046.97
2022-09-05T06:58:36.342Z,102045.06
2022-09-05T07:01:08.757Z,102052.31
2022-09-05T07:05:23.459Z,102055.72
2022-09-05T07:07:16.280Z,102044.06
2022-09-05T07:10:06.086Z,102050.78
2022-09-05T07:12:49.689Z,102049.78
2022-09-05T07:15:36.260Z,102043.34
2022-09-05T07:18:34.213Z,102043.16
2022-09-05T07:21:17.336Z,102044.34
2022-09-05T07:24:09.966Z,102053.06
2022-09-05T07:26:53.957Z,102057.31
2022-09-05T07:29:53.410Z,102054.19
2022-09-05T07:32:31.611Z,102050.63
2022-09-05T07:35:02.833Z,102051.03
2022-09-05T07:37:39.923Z,102064.81
2022-09-05T07:40:26.092Z,102052.63
2022-09-05T07:43:09.318Z,102050.38
2022-09-05T07:45:56.130Z,102045.63
2022-09-05T07:48:35.881Z,102052.00
2022-09-05T07:54:15.111Z,102048.91
2022-09-05T07:57:01.708Z,102054.00
2022-09-05T07:57:27.056Z,102056.16
2022-09-05T07:59:48.319Z,102058.09
2022-09-05T08:02:15.265Z,102055.72
2022-09-05T08:04:42.394Z,102064.91
2022-09-05T08:07:48.784Z,102058.72
2022-09-05T08:10:53.603Z,102062.03
2022-09-05T08:13:27.686Z,102056.72
2022-09-05T08:16:09.755Z,102060.72
2022-09-05T08:18:42.878Z,102056.63
2022-09-05T08:21:39.901Z,102051.84
2022-09-05T08:24:20.459Z,102056.25
2022-09-05T08:26:47.667Z,102054.81
2022-09-05T08:29:20.591Z,102063.22
2022-09-05T08:31:53.404Z,102056.75
2022-09-05T08:34:31.491Z,102058.03
2022-09-05T08:37:21.078Z,102067.09
2022-09-05T08:40:10.491Z,102065.38
2022-09-05T08:46:12.616Z,102061.59
2022-09-05T08:46:41.283Z,102052.00
2022-09-05T08:48:55.071Z,102050.94
2022-09-05T08:51:33.924Z,102044.91
2022-09-05T08:54:31.157Z,102049.84
2022-09-05T08:57:13.187Z,102048.09
2022-09-05T09:00:19.897Z,102046.72
2022-09-05T09:03:13.387Z,102050.25
2022-09-05T09:06:15.701Z,102036.03
2022-09-05T09:09:02.110Z,102037.88
2022-09-05T09:11:41.402Z,102038.97
2022-09-05T09:15:00.929Z,102034.13
2022-09-05T09:17:46.024Z,102038.31
2022-09-05T09:20:15.488Z,102034.72
2022-09-05T09:22:47.318Z,102036.97
2022-09-05T09:25:22.249Z,102033.94
2022-09-05T09:28:46.669Z,102026.88
2022-09-05T09:31:02.622Z,102019.22
2022-09-05T09:33:40.405Z,102019.13
2022-09-05T09:36:37.450Z,102017.38
2022-09-05T09:39:37.146Z,102014.03
2022-09-05T09:42:02.824Z,102007.34
2022-09-05T09:44:41.719Z,102009.91
2022-09-05T09:47:15.125Z,102005.91
2022-09-05T09:49:48.145Z,102013.69
2022-09-05T09:52:37.766Z,102003.28
2022-09-05T09:55:43.522Z,102009.81
2022-09-05T09:58:41.319Z,102013.38
2022-09-05T10:01:36.471Z,102002.09
2022-09-05T10:10:35.112Z,102003.13
2022-09-05T10:10:48.189Z,102001.03
2022-09-05T10:11:41.292Z,101999.03
2022-09-05T10:14:05.692Z,101999.19
2022-09-05T10:17:29.757Z,101986.22
2022-09-05T10:20:29.493Z,101991.66
2022-09-05T10:23:17.951Z,101977.75
2022-09-05T10:26:24.749Z,101975.22
2022-09-05T10:29:26.750Z,101985.22
2022-09-05T10:34:35.729Z,101976.41
2022-09-05T10:35:09.930Z,101982.59
2022-09-05T10:37:51.423Z,101981.66
2022-09-05T10:40:23.371Z,101986.19
2022-09-05T10:43:02.169Z,101978.09
2022-09-05T10:45:40.965Z,101977.22
2022-09-05T10:48:36.296Z,101967.53
2022-09-05T10:51:27.753Z,101979.13
2022-09-05T10:54:03.986Z,101972.91
2022-09-05T10:56:44.255Z,101977.31
2022-09-05T11:01:48.585Z,101972.03
2022-09-05T11:02:34.731Z,101985.22
2022-09-05T11:05:21.986Z,101976.34
2022-09-05T11:07:51.703Z,101972.91
2022-09-05T11:10:40.494Z,101964.91
2022-09-05T11:13:14.335Z,101963.16
2022-09-05T11:16:12.734Z,101963.16
2022-09-05T11:19:05.300Z,101962.25
2022-09-05T11:21:38.009Z,101963.97
2022-09-05T11:24:33.966Z,101963.13
2022-09-05T11:27:25.430Z,101952.41
2022-09-05T11:29:57.682Z,101958.66
2022-09-05T11:38:53.640Z,101957.81
2022-09-05T11:38:55.147Z,101952.34
2022-09-05T11:40:08.820Z,101942.63
2022-09-05T11:42:07.364Z,101945.09
2022-09-05T11:44:58.326Z,101945.97
2022-09-05T11:47:53.743Z,101945.91
2022-09-05T11:50:54.094Z,101948.66
2022-09-05T11:53:38.772Z,101944.31
2022-09-05T11:56:28.936Z,101938.00
2022-09-05T11:59:13.985Z,101928.88
2022-09-05T12:02:23.916Z,101939.56
2022-09-05T12:05:48.477Z,101940.59
2022-09-05T12:08:18.174Z,101936.78
2022-09-05T12:11:20.613Z,101937.59
2022-09-05T12:14:01.007Z,101933.94
2022-09-05T12:17:10.047Z,101933.00
2022-09-05T12:19:57.613Z,101926.63
2022-09-05T12:22:37.025Z,101928.97
2022-09-05T12:25:24.787Z,101930.09
2022-09-05T12:28:31.418Z,101919.66
2022-09-05T12:30:53.113Z,101921.28
2022-09-05T12:36:02.388Z,101915.97
2022-09-05T12:40:53.695Z,101923.13
2022-09-05T12:41:32.249Z,101923.66
2022-09-05T12:43:33.451Z,101918.28
2022-09-05T12:45:47.911Z,101914.97
2022-09-05T12:48:39.081Z,101920.06
2022-09-05T12:51:46.353Z,101911.16
2022-09-05T12:54:33.514Z,101915.81
2022-09-05T13:02:58.132Z,101906.88
2022-09-05T13:03:09.578Z,101902.72
2022-09-05T13:03:28.007Z,101908.63
2022-09-05T13:06:09.334Z,101917.56
2022-09-05T13:08:49.055Z,101898.81
2022-09-05T13:14:47.918Z,101902.66
2022-09-05T13:14:59.829Z,101902.84
2022-09-05T13:17:16.669Z,101899.38
2022-09-05T13:19:51.390Z,101901.13
2022-09-05T13:22:21.495Z,101900.97
2022-09-05T13:25:09.945Z,101903.09
2022-09-05T13:27:43.648Z,101903.41
2022-09-05T13:31:54.758Z,101900.78
2022-09-05T13:38:04.153Z,101901.50
2022-09-05T13:38:19.753Z,101898.81
2022-09-05T13:39:10.926Z,101897.31
2022-09-05T13:41:53.139Z,101890.69
2022-09-05T13:44:26.431Z,101890.84
2022-09-05T13:47:30.304Z,101882.84
2022-09-05T13:50:13.747Z,101885.25
2022-09-05T13:52:46.081Z,101885.34
2022-09-05T13:55:18.837Z,101882.03
2022-09-05T13:58:07.637Z,101879.47
2022-09-05T14:00:38.804Z,101880.06
2022-09-05T14:03:50.724Z,101870.28
2022-09-05T14:06:51.447Z,101884.47
2022-09-05T14:09:59.964Z,101878.91
2022-09-05T14:12:32.536Z,101876.41
2022-09-05T14:15:10.178Z,101866.69
2022-09-05T14:17:59.445Z,101860.63
2022-09-05T14:21:10.386Z,101869.25
2022-09-05T14:24:00.378Z,101863.78
2022-09-05T14:26:36.886Z,101855.88
2022-09-05T14:29:17.506Z,101863.91
2022-09-05T14:37:36.337Z,101860.88
2022-09-05T14:37:50.295Z,101857.69
2022-09-05T14:38:42.771Z,101857.03
2022-09-05T14:42:02.742Z,101843.78
2022-09-05T14:44:54.493Z,101849.84
2022-09-05T14:47:47.446Z,101845.44
2022-09-05T14:50:38.735Z,101836.50
2022-09-05T14:57:02.104Z,101828.75
2022-09-05T15:02:52.294Z,101833.22
2022-09-05T15:03:00.617Z,101828.56
2022-09-05T15:05:15.993Z,101829.09
2022-09-05T15:07:50.566Z,101822.88
2022-09-05T15:12:21.099Z,101821.25
2022-09-05T15:13:16.917Z,101825.22
2022-09-05T15:16:02.248Z,101821.47
2022-09-05T15:18:36.770Z,101824.16
2022-09-05T15:21:33.740Z,101820.53
2022-09-05T15:24:14.420Z,101824.38
2022-09-05T15:27:01.423Z,101818.25
2022-09-05T15:29:30.604Z,101819.88
2022-09-05T15:32:12.416Z,101817.09
2022-09-05T15:34:39.633Z,101825.81
2022-09-05T15:37:23.972Z,101828.44
2022-09-05T15:40:07.619Z,101826.69
2022-09-05T15:43:01.408Z,101821.19
2022-09-05T15:45:35.463Z,101818.88
2022-09-05T15:48:16.393Z,101824.94
2022-09-05T15:50:51.285Z,101813.22
2022-09-05T15:53:29.057Z,101805.81
2022-09-05T15:56:14.203Z,101808.53
2022-09-05T15:58:53.241Z,101812.63
2022-09-05T16:01:58.979Z,101802.47
2022-09-05T16:08:58.127Z,101805.00
2022-09-05T16:10:37.636Z,101802.41
2022-09-05T16:10:39.375Z,101812.69
2022-09-05T16:13:17.466Z,101803.88
2022-09-05T16:19:40.956Z,101804.75
2022-09-05T16:23:28.981Z,101797.88
2022-09-05T16:23:30.900Z,101797.81
2022-09-05T16:24:27.112Z,101803.09
2022-09-05T16:27:13.657Z,101796.75
2022-09-05T16:29:46.337Z,101792.41
2022-09-05T16:32:27.899Z,101796.16
2022-09-05T16:34:57.843Z,101788.19
2022-09-05T16:37:36.044Z,101789.94
2022-09-05T16:40:15.697Z,101794.94
2022-09-05T16:42:52.769Z,101790.69
2022-09-05T16:45:35.233Z,101786.34
2022-09-05T16:48:29.338Z,101781.06
2022-09-05T16:51:34.799Z,101789.22
2022-09-05T16:54:12.082Z,101786.78
2022-09-05T16:56:45.380Z,101775.38
2022-09-05T16:59:26.568Z,101779.13
2022-09-05T17:02:19.945Z,101773.94
2022-09-05T17:05:07.484Z,101772.19
2022-09-05T17:08:14.079Z,101765.31
2022-09-05T17:10:52.857Z,101763.59
2022-09-05T17:13:36.921Z,101767.16
2022-09-05T17:16:05.423Z,101765.41
2022-09-05T17:18:35.239Z,101768.09
2022-09-05T17:21:12.909Z,101765.44
2022-09-05T17:29:18.886Z,101768.03
2022-09-05T17:29:32.962Z,101770.75
2022-09-05T17:32:49.029Z,101771.59
2022-09-05T17:35:57.597Z,101764.47
2022-09-05T17:38:43.049Z,101763.56
2022-09-05T17:41:28.821Z,101766.09
2022-09-05T17:44:15.807Z,101764.22
2022-09-05T17:47:05.510Z,101760.75
2022-09-05T17:49:45.454Z,101758.78
2022-09-05T17:52:17.360Z,101756.88
2022-09-05T17:54:51.019Z,101755.81
2022-09-05T17:57:26.956Z,101756.63
2022-09-05T18:00:12.431Z,101762.06
2022-09-05T18:02:56.435Z,101761.84
2022-09-05T18:05:54.204Z,101758.78
2022-09-05T18:08:48.323Z,101760.31
2022-09-05T18:11:26.265Z,101764.91
2022-09-05T18:13:57.407Z,101768.28
2022-09-05T18:17:36.962Z,101770.91
2022-09-05T18:19:34.588Z,101776.97
2022-09-05T18:22:08.264Z,101781.47
2022-09-05T18:24:46.274Z,101782.97
2022-09-05T18:28:03.879Z,101786.31
2022-09-05T18:30:17.522Z,101781.03
2022-09-05T18:33:54.502Z,101784.28
2022-09-05T18:35:50.739Z,101787.66
2022-09-05T18:38:49.860Z,101785.81
2022-09-05T18:41:19.152Z,101790.22
2022-09-05T18:44:13.285Z,101788.25
2022-09-05T18:46:49.244Z,101792.72
2022-09-05T18:49:57.611Z,101792.75
2022-09-05T18:52:23.724Z,101795.88
2022-09-05T18:56:09.291Z,101799.25
2022-09-05T18:57:49.855Z,101799.19
2022-09-05T19:00:35.039Z,101799.97
2022-09-05T19:03:33.923Z,101809.28
2022-09-05T19:06:35.610Z,101799.78
2022-09-05T19:09:07.816Z,101803.13
2022-09-05T19:11:57.528Z,101803.91
2022-09-05T19:14:46.224Z,101804.66
2022-09-05T19:17:19.253Z,101803.19
2022-09-05T19:20:31.383Z,101810.31
2022-09-05T19:23:11.786Z,101809.59
2022-09-05T19:25:45.245Z,101804.25
2022-09-05T19:32:39.022Z,101808.28
2022-09-05T19:36:54.137Z,101802.28
2022-09-05T19:37:24.274Z,101810.41
2022-09-05T19:37:30.415Z,101804.28
2022-09-05T19:43:02.556Z,101806.63
2022-09-05T19:47:41.663Z,101805.72
2022-09-05T19:47:41.669Z,101813.97
2022-09-05T19:48:34.784Z,101823.47
2022-09-05T19:51:17.032Z,101827.75
2022-09-05T19:53:59.673Z,101821.97
2022-09-05T19:56:45.715Z,101819.03
2022-09-05T19:59:16.982Z,101815.28
2022-09-05T20:01:44.665Z,101814.19
2022-09-05T20:04:18.958Z,101819.22
2022-09-05T20:06:48.146Z,101807.75
2022-09-05T20:09:21.250Z,101813.81
2022-09-05T20:11:53.561Z,101816.97
2022-09-05T20:14:22.216Z,101808.94
2022-09-05T20:16:51.214Z,101805.78
2022-09-05T20:19:30.060Z,101804.03
2022-09-05T20:22:45.161Z,101806.53
2022-09-05T20:25:02.329Z,101805.81
2022-09-05T20:27:30.297Z,101810.09
2022-09-05T20:30:01.633Z,101811.66
2022-09-05T20:32:39.632Z,101807.59
2022-09-05T20:37:22.682Z,101802.78
2022-09-05T20:43:22.633Z,101804.69
2022-09-05T20:43:32.442Z,101808.88
2022-09-05T20:43:55.887Z,101800.66
2022-09-05T20:50:44.400Z,101805.03
2022-09-05T20:54:05.523Z,101808.78
2022-09-05T20:54:15.413Z,101800.69
2022-09-05T20:55:41.307Z,101807.16
2022-09-05T20:58:31.111Z,101808.41
2022-09-05T21:01:22.892Z,101823.00
2022-09-05T21:03:57.137Z,101809.56
2022-09-05T21:06:26.090Z,101809.13
2022-09-05T21:08:56.061Z,101813.66
2022-09-05T21:11:32.686Z,101814.97
2022-09-05T21:14:04.827Z,101812.78
2022-09-05T21:16:37.595Z,101810.56
2022-09-05T21:19:04.661Z,101813.31
2022-09-05T21:21:33.604Z,101810.72
2022-09-05T21:24:16.084Z,101803.03
2022-09-05T21:26:47.828Z,101802.94
2022-09-05T21:29:22.556Z,101796.47
2022-09-05T21:31:59.987Z,101795.81
2022-09-05T21:34:31.068Z,101795.84
2022-09-05T21:37:06.515Z,101790.38
2022-09-05T21:39:56.920Z,101793.53
2022-09-05T21:46:05.936Z,101781.59
2022-09-05T21:47:39.614Z,101793.63
2022-09-05T21:48:15.483Z,101791.00
2022-09-05T21:50:48.953Z,101782.94
2022-09-05T21:54:47.380Z,101784.03
2022-09-05T21:59:26.887Z,101771.84
2022-09-05T21:59:37.051Z,101778.34
2022-09-05T22:02:07.085Z,101769.00
2022-09-05T22:04:41.189Z,101780.25
2022-09-05T22:07:20.330Z,101775.09
2022-09-05T22:10:00.131Z,101776.66
2022-09-05T22:12:31.415Z,101782.84
2022-09-05T22:15:11.496Z,101777.50
2022-09-05T22:17:47.151Z,101780.31
2022-09-05T22:20:16.781Z,101777.50
2022-09-05T22:22:56.022Z,101772.16
2022-09-05T22:25:30.033Z,101776.91
2022-09-05T22:28:07.933Z,101776.66
2022-09-05T22:30:38.700Z,101773.53
2022-09-05T22:33:06.254Z,101768.09
2022-09-05T22:35:36.077Z,101764.03
2022-09-05T22:38:12.441Z,101758.09
2022-09-05T22:40:41.717Z,101762.75
2022-09-05T22:43:10.553Z,101760.44
2022-09-05T22:45:38.793Z,101757.22
2022-09-05T22:48:10.981Z,101754.47
2022-09-05T22:50:38.916Z,101740.84
2022-09-05T22:53:08.441Z,101737.66
2022-09-05T22:55:40.660Z,101729.91
2022-09-05T22:58:13.297Z,101732.53
2022-09-05T23:00:41.855Z,101726.00
2022-09-05T23:03:09.020Z,101725.06
2022-09-05T23:05:36.109Z,101714.50
2022-09-05T23:08:04.692Z,101713.50
2022-09-05T23:10:31.923Z,101716.28
2022-09-05T23:13:02.484Z,101707.84
2022-09-05T23:15:29.346Z,101707.63
2022-09-05T23:17:58.265Z,101713.81
2022-09-05T23:20:27.156Z,101707.38
2022-09-05T23:22:54.020Z,101705.16
2022-09-05T23:25:21.645Z,101703.59
2022-09-05T23:27:49.125Z,101700.09
2022-09-05T23:30:16.464Z,101699.78
2022-09-05T23:32:50.776Z,101685.06
2022-09-05T23:35:19.236Z,101694.19
2022-09-05T23:37:47.591Z,101686.94
2022-09-05T23:40:22.002Z,101685.50
2022-09-05T23:42:57.342Z,101678.59
2022-09-05T23:45:25.183Z,101669.59
2022-09-05T23:47:52.424Z,101670.34
2022-09-05T23:50:20.489Z,101665.03
2022-09-05T23:52:47.658Z,101670.53
2022-09-05T23:55:17.234Z,101668.84
2022-09-05T23:57:44.623Z,101663.47
